Time;durP1;ratioP1;P1;durP2;ratioP2;P2;SDS_P1;SDS_P2;PMS_P1;PMS_P2;Temp;Humidity;BMP_temperature;BMP_pressure;BME280_temperature;BME280_humidity;BME280_pressure;Samples;Min_cycle;Max_cycle;Signal;HPM_P1;HPM_P2
2023/12/07 00:01:21;;;;;;;10.60;9.47;;;4.20;99.90;;;;;;5099721;28;20180;-42
2023/12/07 00:03:47;;;;;;;12.70;10.70;;;4.20;99.90;;;;;;5082324;28;20545;-42
2023/12/07 00:06:12;;;;;;;13.83;11.83;;;4.20;99.90;;;;;;5099482;28;20183;-41
2023/12/07 00:08:38;;;;;;;11.90;10.70;;;4.20;99.90;;;;;;5099298;28;20267;-42
2023/12/07 00:11:04;;;;;;;10.30;9.20;;;4.20;99.90;;;;;;5099781;28;20196;-44
2023/12/07 00:13:29;;;;;;;12.30;10.60;;;4.20;99.90;;;;;;5081708;28;20191;-40
2023/12/07 00:15:55;;;;;;;10.83;9.67;;;4.20;99.90;;;;;;5096861;28;20177;-44
2023/12/07 00:18:20;;;;;;;13.27;11.40;;;4.20;99.90;;;;;;5079112;28;20228;-42
2023/12/07 00:20:46;;;;;;;14.30;9.80;;;4.20;99.90;;;;;;5097575;28;20173;-44
2023/12/07 00:23:12;;;;;;;12.17;10.67;;;4.20;99.90;;;;;;5098039;28;20583;-42
2023/12/07 00:25:38;;;;;;;14.73;10.13;;;4.30;99.90;;;;;;5098835;28;20218;-41
2023/12/07 00:28:03;;;;;;;13.30;10.77;;;4.30;99.90;;;;;;5081930;28;20216;-41
2023/12/07 00:30:30;;;;;;;12.57;10.83;;;4.30;99.90;;;;;;5100162;28;20421;-41
2023/12/07 00:32:56;;;;;;;11.07;9.90;;;4.30;99.90;;;;;;5099862;28;20445;-40
2023/12/07 00:35:22;;;;;;;12.40;10.53;;;4.30;99.90;;;;;;5099830;28;20234;-43
2023/12/07 00:37:49;;;;;;;14.50;10.60;;;4.30;99.90;;;;;;5082423;28;20459;-40
2023/12/07 00:40:14;;;;;;;10.27;7.63;;;4.30;99.90;;;;;;5100345;28;20487;-41
2023/12/07 00:42:40;;;;;;;9.30;6.00;;;4.50;1.00;;;;;;5099709;28;20826;-41
2023/12/07 00:45:06;;;;;;;8.50;7.47;;;5.40;1.00;;;;;;5099612;28;20204;-42
2023/12/07 00:47:31;;;;;;;9.70;7.40;;;6.40;1.00;;;;;;5098926;28;20735;-39
2023/12/07 00:49:57;;;;;;;9.20;8.30;;;7.20;1.00;;;;;;5098681;28;20187;-47
2023/12/07 00:52:23;;;;;;;10.33;8.57;;;7.90;1.00;;;;;;5097598;28;20180;-42
2023/12/07 00:54:48;;;;;;;10.43;7.57;;;8.40;1.00;;;;;;5097798;28;20195;-41
2023/12/07 00:57:14;;;;;;;8.30;7.50;;;8.70;1.00;;;;;;5097370;28;20232;-42
2023/12/07 00:59:39;;;;;;;10.00;9.00;;;8.80;1.00;;;;;;5097683;28;20245;-45
2023/12/07 01:02:06;;;;;;;10.17;9.17;;;8.50;1.00;;;;;;5078971;28;20558;-42
2023/12/07 01:04:32;;;;;;;10.13;9.10;;;8.10;1.00;;;;;;5096494;28;20514;-40
2023/12/07 01:06:58;;;;;;;9.83;8.87;;;7.60;1.00;;;;;;5097690;28;20472;-44
2023/12/07 01:09:24;;;;;;;10.80;9.40;;;7.20;1.00;;;;;;5079827;28;20515;-41
2023/12/07 01:11:50;;;;;;;9.50;8.50;;;6.80;1.00;;;;;;5097568;28;20584;-39
2023/12/07 01:14:16;;;;;;;10.23;9.27;;;6.50;99.90;;;;;;5061947;28;20180;-41
2023/12/07 01:16:42;;;;;;;8.77;7.87;;;6.30;99.90;;;;;;5095778;28;20430;-40
2023/12/07 01:19:08;;;;;;;10.80;9.50;;;6.00;1.00;;;;;;5061453;28;20794;-43
2023/12/07 01:21:34;;;;;;;9.47;8.53;;;5.80;1.00;;;;;;5096203;28;20534;-40
2023/12/07 01:23:59;;;;;;;10.37;9.30;;;5.60;99.90;;;;;;5095768;28;20199;-41
2023/12/07 01:26:25;;;;;;;9.83;8.83;;;5.50;99.90;;;;;;5097415;28;20187;-41
2023/12/07 01:28:50;;;;;;;10.07;8.97;;;5.40;99.90;;;;;;5097058;28;20176;-40
2023/12/07 01:31:17;;;;;;;9.87;8.83;;;5.20;99.90;;;;;;5097363;28;20184;-40
2023/12/07 01:33:43;;;;;;;10.00;9.00;;;5.10;99.90;;;;;;5097747;28;20177;-43
2023/12/07 01:36:08;;;;;;;11.30;9.80;;;5.10;99.90;;;;;;5080645;28;20489;-41
2023/12/07 01:38:34;;;;;;;10.00;8.80;;;5.00;99.90;;;;;;5098501;28;20426;-44
2023/12/07 01:41:00;;;;;;;11.20;9.07;;;4.90;99.90;;;;;;5098798;28;20434;-45
2023/12/07 01:43:25;;;;;;;9.67;8.77;;;4.90;99.90;;;;;;5098888;28;20534;-42
2023/12/07 01:45:55;;;;;;;9.77;8.77;;;4.80;99.90;;;;;;5098500;28;20184;-45
2023/12/07 01:48:22;;;;;;;10.20;9.13;;;4.70;99.90;;;;;;5080475;28;20180;-47
2023/12/07 01:50:47;;;;;;;9.73;8.73;;;4.70;99.90;;;;;;5099051;28;20749;-42
2023/12/07 01:53:13;;;;;;;9.90;8.90;;;4.70;99.90;;;;;;5079810;28;20426;-42
2023/12/07 01:55:42;;;;;;;10.47;8.70;;;4.60;99.90;;;;;;5079576;28;20237;-41
2023/12/07 01:58:08;;;;;;;10.37;9.27;;;4.50;99.90;;;;;;5096280;28;20195;-40
2023/12/07 02:00:34;;;;;;;13.70;10.83;;;4.50;59.70;;;;;;5097029;28;20466;-42
2023/12/07 02:03:02;;;;;;;10.30;9.30;;;4.40;31.90;;;;;;5097044;28;20172;-41
2023/12/07 02:05:28;;;;;;;10.70;8.60;;;4.40;24.30;;;;;;5079112;28;20538;-42
2023/12/07 02:07:54;;;;;;;9.70;8.80;;;4.30;24.40;;;;;;5079252;28;20709;-40
2023/12/07 02:10:19;;;;;;;10.20;8.80;;;4.30;12.70;;;;;;5097092;28;20177;-41
2023/12/07 02:12:46;;;;;;;8.93;7.67;;;4.20;1.00;;;;;;5098349;28;20431;-42
2023/12/07 02:15:12;;;;;;;10.87;8.73;;;4.20;1.00;;;;;;5097706;28;20168;-40
2023/12/07 02:17:46;;;;;;;8.77;7.87;;;4.20;1.00;;;;;;5096915;28;20430;-41
2023/12/07 02:20:17;;;;;;;9.90;8.53;;;4.10;1.00;;;;;;5097868;28;20283;-41
2023/12/07 02:22:47;;;;;;;9.50;8.50;;;4.10;1.00;;;;;;5098072;28;20434;-41
2023/12/07 02:25:14;;;;;;;10.80;8.97;;;4.10;1.00;;;;;;5078425;28;20509;-41
2023/12/07 02:27:42;;;;;;;9.70;8.80;;;4.00;1.80;;;;;;5097427;28;20438;-41
2023/12/07 02:30:10;;;;;;;8.20;7.37;;;4.00;7.70;;;;;;5098321;28;20410;-41
2023/12/07 02:32:37;;;;;;;9.50;8.27;;;4.00;10.90;;;;;;5098146;28;20426;-40
2023/12/07 02:35:03;;;;;;;9.23;8.33;;;4.00;17.00;;;;;;5080075;28;20757;-39
2023/12/07 02:37:34;;;;;;;9.97;8.10;;;4.00;19.40;;;;;;5097621;28;20442;-41
2023/12/07 02:40:00;;;;;;;9.60;8.60;;;4.00;16.00;;;;;;5098346;28;20527;-40
2023/12/07 02:42:27;;;;;;;8.93;7.90;;;4.00;16.20;;;;;;5096543;28;20563;-39
2023/12/07 02:44:53;;;;;;;9.33;7.93;;;4.00;6.80;;;;;;5097458;28;20466;-42
2023/12/07 02:47:19;;;;;;;8.70;7.80;;;4.00;10.70;;;;;;5097475;28;20823;-40
2023/12/07 02:49:45;;;;;;;8.63;7.83;;;4.00;17.80;;;;;;5097007;28;20857;-40
2023/12/07 02:52:10;;;;;;;10.60;9.50;;;3.90;14.90;;;;;;5097513;28;20185;-41
2023/12/07 02:54:36;;;;;;;10.37;9.27;;;3.90;22.40;;;;;;5078740;28;20451;-42
2023/12/07 02:57:01;;;;;;;9.77;8.77;;;3.90;25.50;;;;;;5078844;28;20176;-42
2023/12/07 02:59:27;;;;;;;10.10;8.67;;;3.90;41.70;;;;;;5097484;28;20288;-40
2023/12/07 03:01:53;;;;;;;10.17;8.37;;;3.90;53.60;;;;;;5096906;28;20206;-40
2023/12/07 03:04:18;;;;;;;8.60;7.80;;;3.90;60.00;;;;;;5096672;28;20219;-40
2023/12/07 03:06:44;;;;;;;10.20;7.67;;;3.90;75.50;;;;;;5096896;28;20184;-41
2023/12/07 03:09:09;;;;;;;9.10;7.27;;;3.80;85.90;;;;;;5096741;28;20179;-40
2023/12/07 03:11:35;;;;;;;9.33;8.30;;;3.80;86.50;;;;;;5096270;28;20195;-50
2023/12/07 03:14:01;;;;;;;8.60;7.67;;;3.80;88.70;;;;;;5096085;28;20184;-39
2023/12/07 03:16:26;;;;;;;9.33;8.20;;;3.80;84.00;;;;;;5096371;28;20545;-40
2023/12/07 03:18:52;;;;;;;10.30;7.70;;;3.80;77.50;;;;;;5096329;28;20195;-42
2023/12/07 03:21:17;;;;;;;8.37;7.60;;;3.80;92.10;;;;;;5095826;28;20180;-41
2023/12/07 03:23:43;;;;;;;9.03;8.10;;;3.80;94.90;;;;;;5096934;28;20210;-44
2023/12/07 03:26:08;;;;;;;10.03;8.60;;;3.80;85.90;;;;;;5078945;28;20183;-40
2023/12/07 03:28:34;;;;;;;9.30;7.97;;;3.80;91.80;;;;;;5095452;28;20416;-40
2023/12/07 03:30:59;;;;;;;8.77;7.57;;;3.70;71.00;;;;;;5094981;28;20258;-41
2023/12/07 03:33:25;;;;;;;8.53;7.07;;;3.70;59.60;;;;;;5096247;28;20176;-41
2023/12/07 03:35:51;;;;;;;10.33;8.50;;;3.70;62.60;;;;;;5096835;28;20654;-41
2023/12/07 03:38:16;;;;;;;8.23;7.47;;;3.60;50.50;;;;;;5097204;28;20199;-41
2023/12/07 03:40:42;;;;;;;8.33;7.43;;;3.60;49.60;;;;;;5096868;28;20199;-39
2023/12/07 03:43:08;;;;;;;8.77;6.90;;;3.60;49.40;;;;;;5095906;28;20460;-39
2023/12/07 03:45:33;;;;;;;9.00;7.70;;;3.50;42.70;;;;;;5095695;28;20285;-42
2023/12/07 03:47:59;;;;;;;8.07;7.03;;;3.50;40.90;;;;;;5095091;28;20180;-42
2023/12/07 03:50:25;;;;;;;7.93;7.13;;;3.50;26.40;;;;;;5095107;28;20180;-40
2023/12/07 03:52:50;;;;;;;8.77;7.90;;;3.50;11.60;;;;;;5094564;28;20176;-42
2023/12/07 03:55:16;;;;;;;7.37;6.30;;;3.40;1.80;;;;;;5094838;28;20180;-42
2023/12/07 03:57:41;;;;;;;7.33;6.53;;;3.40;1.00;;;;;;5095093;28;20180;-41
2023/12/07 04:00:10;;;;;;;7.57;6.77;;;3.30;1.00;;;;;;5095362;28;20188;-42
2023/12/07 04:02:36;;;;;;;7.70;6.70;;;3.30;1.00;;;;;;5077125;28;20185;-39
2023/12/07 04:05:02;;;;;;;8.20;7.00;;;3.30;1.00;;;;;;5093351;28;20470;-40
2023/12/07 04:07:30;;;;;;;6.77;6.10;;;3.20;1.00;;;;;;5095273;28;20184;-39
2023/12/07 04:09:57;;;;;;;9.70;7.13;;;3.10;1.00;;;;;;5094332;28;20441;-41
2023/12/07 04:12:23;;;;;;;7.53;6.73;;;3.10;1.00;;;;;;5094955;28;20793;-40
2023/12/07 04:14:49;;;;;;;8.40;6.77;;;3.10;1.00;;;;;;5094583;28;20421;-40
2023/12/07 04:17:15;;;;;;;8.00;7.20;;;3.00;1.00;;;;;;5094735;28;20928;-42
2023/12/07 04:19:41;;;;;;;8.57;7.37;;;3.00;1.00;;;;;;5095806;28;20465;-41
2023/12/07 04:22:06;;;;;;;7.40;6.70;;;2.90;1.00;;;;;;5095955;28;20196;-41
2023/12/07 04:24:32;;;;;;;9.30;6.10;;;2.90;1.00;;;;;;5095548;28;20608;-40
2023/12/07 04:26:58;;;;;;;7.17;6.47;;;2.80;1.00;;;;;;5094815;28;20184;-44
2023/12/07 04:29:23;;;;;;;6.80;6.10;;;2.80;1.00;;;;;;5094111;28;20263;-39
2023/12/07 04:31:49;;;;;;;8.57;7.70;;;2.70;1.00;;;;;;5077933;28;20188;-39
2023/12/07 04:34:14;;;;;;;7.87;7.03;;;2.70;1.00;;;;;;5099000;28;20301;-41
2023/12/07 04:36:40;;;;;;;7.60;6.30;;;2.60;1.00;;;;;;5099149;28;20192;-39
2023/12/07 04:39:05;;;;;;;7.37;6.67;;;2.60;1.00;;;;;;5099487;28;20215;-41
2023/12/07 04:41:31;;;;;;;9.37;8.07;;;2.60;1.00;;;;;;5098479;28;20245;-40
2023/12/07 04:43:57;;;;;;;8.03;6.70;;;2.50;1.00;;;;;;5080117;28;20212;-39
2023/12/07 04:46:23;;;;;;;8.50;7.47;;;2.50;1.00;;;;;;5097719;28;20433;-46
2023/12/07 04:48:48;;;;;;;7.23;6.30;;;2.50;1.00;;;;;;5079261;28;20188;-41
2023/12/07 04:51:14;;;;;;;8.70;7.37;;;2.40;1.00;;;;;;5097726;28;20199;-43
2023/12/07 04:53:39;;;;;;;10.70;8.33;;;2.40;1.00;;;;;;5096992;28;20550;-39
2023/12/07 04:56:06;;;;;;;9.87;7.50;;;2.30;1.00;;;;;;5096049;28;20383;-41
2023/12/07 04:58:32;;;;;;;8.73;7.33;;;2.30;1.00;;;;;;5096759;28;20176;-40
2023/12/07 05:00:57;;;;;;;9.70;7.23;;;2.20;1.00;;;;;;5097785;28;20427;-41
2023/12/07 05:03:23;;;;;;;9.60;8.40;;;2.20;1.00;;;;;;5096520;28;20197;-38
2023/12/07 05:05:49;;;;;;;9.03;8.10;;;2.20;1.00;;;;;;5095735;28;20180;-42
2023/12/07 05:08:15;;;;;;;8.80;7.40;;;2.10;1.00;;;;;;5094665;28;20180;-41
2023/12/07 05:10:41;;;;;;;8.40;7.47;;;2.10;1.00;;;;;;5094784;28;20968;-41
2023/12/07 05:13:06;;;;;;;9.37;8.10;;;2.10;1.00;;;;;;5094831;28;20409;-39
2023/12/07 05:15:32;;;;;;;9.80;8.47;;;2.10;1.00;;;;;;5095258;28;20208;-39
2023/12/07 05:17:57;;;;;;;10.07;8.30;;;2.00;1.00;;;;;;5092817;28;20192;-40
2023/12/07 05:20:24;;;;;;;8.50;7.60;;;2.00;1.00;;;;;;5092895;28;20199;-42
2023/12/07 05:22:50;;;;;;;11.37;8.37;;;2.00;1.00;;;;;;5074479;28;20240;-40
2023/12/07 05:25:15;;;;;;;10.20;7.90;;;1.90;1.00;;;;;;5093345;28;20533;-40
2023/12/07 05:27:41;;;;;;;10.80;8.73;;;1.90;1.00;;;;;;5090536;28;20462;-41
2023/12/07 05:30:07;;;;;;;9.83;7.73;;;1.90;1.00;;;;;;5093203;28;20179;-40
2023/12/07 05:32:33;;;;;;;9.50;8.00;;;1.90;1.00;;;;;;5093541;28;20184;-39
2023/12/07 05:34:58;;;;;;;12.33;7.47;;;1.90;1.00;;;;;;5093996;28;20845;-41
2023/12/07 05:37:24;;;;;;;13.27;9.17;;;1.90;1.00;;;;;;5095322;28;20192;-40
2023/12/07 05:39:50;;;;;;;9.50;8.40;;;1.90;1.00;;;;;;5095284;28;20267;-40
2023/12/07 05:42:16;;;;;;;9.13;8.13;;;1.80;1.00;;;;;;5095483;28;20172;-44
2023/12/07 05:44:41;;;;;;;10.70;8.13;;;1.80;1.00;;;;;;5094378;28;20411;-41
2023/12/07 05:47:07;;;;;;;10.30;8.10;;;1.80;1.00;;;;;;5076787;28;20484;-41
2023/12/07 05:49:33;;;;;;;12.47;8.33;;;1.80;1.00;;;;;;5095329;28;20592;-41
2023/12/07 05:51:59;;;;;;;8.07;6.80;;;1.80;1.00;;;;;;5095336;28;20461;-41
2023/12/07 05:54:24;;;;;;;9.73;8.07;;;1.80;1.00;;;;;;5096210;28;20386;-40
2023/12/07 05:56:50;;;;;;;10.87;8.47;;;1.80;1.00;;;;;;5093408;28;20508;-41
2023/12/07 05:59:16;;;;;;;9.00;8.07;;;1.70;1.00;;;;;;5073979;28;20644;-42
2023/12/07 06:01:43;;;;;;;8.60;6.70;;;1.70;1.00;;;;;;5091250;28;20485;-40
2023/12/07 06:04:09;;;;;;;10.43;8.23;;;1.70;1.00;;;;;;5091336;28;20200;-40
2023/12/07 06:06:36;;;;;;;9.00;7.57;;;1.60;1.00;;;;;;5073687;28;20433;-44
2023/12/07 06:09:03;;;;;;;9.03;8.03;;;1.60;1.00;;;;;;5089581;28;20509;-43
2023/12/07 06:11:28;;;;;;;10.17;8.73;;;1.60;1.00;;;;;;5086523;28;20858;-41
2023/12/07 06:13:54;;;;;;;10.17;7.77;;;1.60;1.00;;;;;;5086401;28;20550;-39
2023/12/07 06:16:20;;;;;;;10.00;8.33;;;1.60;1.00;;;;;;5088010;28;20378;-40
2023/12/07 06:18:46;;;;;;;9.67;8.20;;;1.60;1.00;;;;;;5087836;28;20422;-41
2023/12/07 06:21:12;;;;;;;8.97;8.10;;;1.50;1.00;;;;;;5089442;28;20180;-42
2023/12/07 06:23:37;;;;;;;10.30;8.17;;;1.60;1.00;;;;;;5071252;28;20176;-41
2023/12/07 06:26:05;;;;;;;9.33;8.33;;;1.50;1.00;;;;;;5089965;28;20794;-43
2023/12/07 06:28:32;;;;;;;11.50;8.33;;;1.50;1.00;;;;;;5091969;28;20184;-41
2023/12/07 06:30:57;;;;;;;9.50;8.50;;;1.50;1.00;;;;;;5099654;28;20457;-41
2023/12/07 06:33:23;;;;;;;9.97;7.60;;;1.50;1.00;;;;;;5109864;28;20410;-41
2023/12/07 06:35:48;;;;;;;10.13;7.40;;;1.50;1.00;;;;;;5087471;28;20590;-41
2023/12/07 06:38:14;;;;;;;10.53;8.70;;;1.50;1.00;;;;;;5088063;28;20181;-41
2023/12/07 06:40:40;;;;;;;12.00;8.37;;;1.50;1.00;;;;;;5088914;28;20181;-44
2023/12/07 06:43:05;;;;;;;8.67;7.60;;;1.40;1.00;;;;;;5087794;28;20682;-41
2023/12/07 06:45:31;;;;;;;11.60;8.97;;;1.40;1.00;;;;;;5090091;28;20237;-40
2023/12/07 06:47:56;;;;;;;11.40;9.10;;;1.40;1.00;;;;;;5090292;28;20176;-42
2023/12/07 06:50:22;;;;;;;11.17;8.63;;;1.40;1.00;;;;;;5087353;28;20184;-40
2023/12/07 06:52:47;;;;;;;9.10;7.77;;;1.40;1.00;;;;;;5087995;28;20580;-43
2023/12/07 06:55:14;;;;;;;11.00;8.90;;;1.40;1.00;;;;;;5088700;28;20234;-41
2023/12/07 06:57:40;;;;;;;11.50;9.10;;;1.40;1.00;;;;;;5089220;28;20184;-40
2023/12/07 07:00:10;;;;;;;10.30;8.67;;;1.40;1.00;;;;;;5088598;28;20448;-40
2023/12/07 07:02:37;;;;;;;10.87;8.07;;;1.40;1.00;;;;;;5087443;28;20181;-40
2023/12/07 07:05:03;;;;;;;10.40;8.70;;;1.40;1.00;;;;;;5086101;28;20634;-41
2023/12/07 07:07:31;;;;;;;10.27;8.60;;;1.40;1.00;;;;;;5085374;28;20503;-40
2023/12/07 07:09:57;;;;;;;9.70;8.27;;;1.40;1.00;;;;;;5088689;28;20615;-41
2023/12/07 07:12:23;;;;;;;9.40;7.70;;;1.40;1.00;;;;;;5089628;28;20640;-42
2023/12/07 07:14:49;;;;;;;11.10;9.10;;;1.40;1.00;;;;;;5084906;28;20462;-42
2023/12/07 07:17:15;;;;;;;11.97;8.70;;;1.40;1.00;;;;;;5068857;28;20185;-41
2023/12/07 07:19:41;;;;;;;10.17;9.17;;;1.40;99.90;;;;;;5070704;28;20182;-42
2023/12/07 07:22:09;;;;;;;9.60;8.60;;;1.40;99.90;;;;;;5071702;28;20427;-42
2023/12/07 07:24:34;;;;;;;11.40;8.77;;;1.40;99.90;;;;;;5072300;28;20530;-41
2023/12/07 07:27:00;;;;;;;12.03;8.90;;;1.40;99.90;;;;;;5069437;28;20963;-41
2023/12/07 07:29:27;;;;;;;11.60;9.00;;;1.40;99.90;;;;;;5071818;28;20582;-40
2023/12/07 07:31:53;;;;;;;9.43;8.43;;;1.50;99.90;;;;;;5072146;28;20436;-42
2023/12/07 07:34:18;;;;;;;10.20;9.20;;;1.50;99.90;;;;;;5079020;28;20485;-41
2023/12/07 07:36:44;;;;;;;10.57;9.07;;;1.70;99.90;;;;;;5093020;28;20176;-42
2023/12/07 07:39:11;;;;;;;12.30;9.67;;;1.80;99.90;;;;;;5091326;28;20279;-48
2023/12/07 07:41:36;;;;;;;11.13;10.07;;;2.10;99.90;;;;;;5091985;28;20175;-41
2023/12/07 07:44:02;;;;;;;10.60;9.30;;;2.40;99.90;;;;;;5073472;28;20836;-40
2023/12/07 07:46:28;;;;;;;10.50;9.40;;;2.70;1.00;;;;;;5091314;28;20673;-41
2023/12/07 07:48:53;;;;;;;11.70;10.10;;;3.00;1.00;;;;;;5092819;28;20185;-40
2023/12/07 07:51:19;;;;;;;11.80;10.60;;;3.40;99.90;;;;;;5074219;28;20192;-40
2023/12/07 07:53:44;;;;;;;11.87;9.47;;;3.80;1.00;;;;;;5095112;28;20595;-40
2023/12/07 07:56:10;;;;;;;12.40;9.77;;;4.20;99.90;;;;;;5092533;28;20353;-41
2023/12/07 07:58:36;;;;;;;11.40;10.07;;;4.50;1.00;;;;;;5073582;28;20612;-40
2023/12/07 08:01:02;;;;;;;10.50;9.40;;;4.90;8.40;;;;;;5090686;28;20435;-41
2023/12/07 08:03:27;;;;;;;12.03;10.63;;;5.40;1.00;;;;;;5092931;28;20407;-39
2023/12/07 08:05:53;;;;;;;10.40;9.30;;;5.80;99.90;;;;;;5092456;28;20191;-42
2023/12/07 08:08:20;;;;;;;10.70;9.57;;;6.20;1.00;;;;;;5095150;28;20180;-41
2023/12/07 08:10:46;;;;;;;11.17;9.97;;;6.70;99.90;;;;;;5097159;28;20183;-41
2023/12/07 08:13:11;;;;;;;11.37;10.17;;;7.10;32.70;;;;;;5096341;28;20848;-41
2023/12/07 08:15:37;;;;;;;13.30;10.60;;;7.50;1.00;;;;;;5079200;28;20543;-41
2023/12/07 08:18:02;;;;;;;9.90;8.93;;;8.00;99.90;;;;;;5098944;28;20169;-41
2023/12/07 08:20:28;;;;;;;12.10;10.80;;;8.40;1.00;;;;;;5099144;28;20191;-41
2023/12/07 08:22:54;;;;;;;10.77;9.70;;;8.80;1.00;;;;;;5079929;28;20196;-41
2023/12/07 08:25:21;;;;;;;12.20;10.77;;;9.40;1.00;;;;;;5081544;28;20441;-41
2023/12/07 08:27:47;;;;;;;11.80;10.60;;;10.00;99.90;;;;;;5097811;28;20177;-42
2023/12/07 08:30:13;;;;;;;11.53;10.27;;;10.60;99.90;;;;;;5095377;28;20479;-42
2023/12/07 08:32:39;;;;;;;11.03;9.87;;;11.30;55.30;;;;;;5074544;28;20421;-45
2023/12/07 08:35:06;;;;;;;11.13;10.03;;;12.00;1.00;;;;;;5093820;28;20790;-42
2023/12/07 08:37:32;;;;;;;10.23;9.20;;;12.80;1.00;;;;;;5095636;28;20862;-43
2023/12/07 08:39:58;;;;;;;9.07;8.27;;;13.50;1.00;;;;;;5097086;28;20415;-42
2023/12/07 08:42:26;;;;;;;9.97;9.07;;;14.10;1.00;;;;;;5078908;28;20418;-42
2023/12/07 08:44:52;;;;;;;9.97;9.03;;;14.60;1.00;;;;;;5096777;28;20160;-45
2023/12/07 08:47:18;;;;;;;9.37;8.53;;;15.40;1.00;;;;;;5079384;28;20433;-46
2023/12/07 08:49:43;;;;;;;9.40;8.50;;;16.10;1.00;;;;;;5096412;28;20509;-44
2023/12/07 08:52:09;;;;;;;9.43;8.63;;;16.70;1.00;;;;;;5097454;28;20243;-43
2023/12/07 08:54:36;;;;;;;11.10;9.63;;;17.30;1.00;;;;;;5095920;28;20208;-44
2023/12/07 08:57:01;;;;;;;9.80;8.87;;;17.80;1.00;;;;;;5078537;28;20548;-43
2023/12/07 08:59:28;;;;;;;9.03;8.27;;;18.50;1.00;;;;;;5079308;28;20480;-41
2023/12/07 09:01:55;;;;;;;9.17;8.37;;;19.00;1.00;;;;;;5061807;28;20181;-42
2023/12/07 09:04:21;;;;;;;8.90;8.10;;;19.50;1.00;;;;;;5097533;28;20415;-41
2023/12/07 09:06:47;;;;;;;6.70;4.83;;;20.00;1.00;;;;;;5097665;28;20176;-42
2023/12/07 09:09:12;;;;;;;5.23;3.37;;;20.70;1.00;;;;;;5096017;28;20180;-43
2023/12/07 09:11:38;;;;;;;4.60;3.63;;;21.80;1.00;;;;;;5093716;28;20338;-41
2023/12/07 09:14:03;;;;;;;9.33;4.00;;;22.70;1.00;;;;;;5094944;28;20309;-41
2023/12/07 09:16:29;;;;;;;6.43;4.30;;;23.50;1.00;;;;;;5078872;28;20428;-42
2023/12/07 09:18:55;;;;;;;6.17;5.57;;;24.10;1.00;;;;;;5091957;28;20180;-41
2023/12/07 09:21:23;;;;;;;5.80;3.73;;;24.70;1.00;;;;;;5093427;28;20183;-45
2023/12/07 09:23:48;;;;;;;8.63;3.87;;;25.20;1.00;;;;;;5095716;28;20426;-45
2023/12/07 09:26:14;;;;;;;14.00;4.60;;;25.90;1.00;;;;;;5060968;28;20687;-46
2023/12/07 09:28:40;;;;;;;6.93;4.60;;;26.60;1.00;;;;;;5077361;28;20782;-44
2023/12/07 09:31:07;;;;;;;5.17;4.47;;;27.30;1.00;;;;;;5077884;28;20290;-43
2023/12/07 09:33:32;;;;;;;5.30;4.80;;;27.90;1.00;;;;;;5077782;28;20423;-45
2023/12/07 09:35:58;;;;;;;5.23;4.77;;;28.50;99.90;;;;;;5078594;28;20443;-44
2023/12/07 09:38:24;;;;;;;16.77;5.43;;;29.20;99.90;;;;;;5096627;28;20263;-45
2023/12/07 09:40:54;;;;;;;14.23;5.23;;;30.80;94.50;;;;;;5078727;28;20177;-43
2023/12/07 09:43:20;;;;;;;7.67;4.40;;;29.80;16.30;;;;;;5076935;28;20183;-42
2023/12/07 09:45:45;;;;;;;11.23;5.07;;;30.10;34.80;;;;;;5075983;28;20666;-46
2023/12/07 09:48:11;;;;;;;10.83;4.83;;;30.40;63.80;;;;;;5094473;28;20180;-46
2023/12/07 09:50:37;;;;;;;9.20;4.20;;;29.90;22.90;;;;;;5078308;28;20546;-46
2023/12/07 09:53:02;;;;;;;7.97;4.17;;;29.20;40.30;;;;;;5077374;28;20173;-45
2023/12/07 09:55:28;;;;;;;8.73;4.07;;;29.30;56.00;;;;;;5077120;28;20674;-45
2023/12/07 09:57:56;;;;;;;8.80;4.50;;;27.80;1.00;;;;;;5077617;28;20418;-46
2023/12/07 10:00:22;;;;;;;5.97;4.40;;;27.40;1.00;;;;;;5095794;28;20173;-49
2023/12/07 10:02:48;;;;;;;6.37;3.83;;;27.10;1.00;;;;;;5077492;28;20514;-45
2023/12/07 10:05:16;;;;;;;5.97;4.13;;;26.90;1.00;;;;;;5093641;28;20458;-50
2023/12/07 10:07:43;;;;;;;3.70;3.40;;;26.80;1.00;;;;;;5095663;28;20493;-43
2023/12/07 10:10:13;;;;;;;5.07;3.73;;;26.60;32.70;;;;;;5094066;28;20438;-46
2023/12/07 10:12:55;;;;;;;3.40;3.10;;;26.60;51.30;;;;;;5093489;28;20457;-44
2023/12/07 10:15:22;;;;;;;6.87;3.70;;;26.60;1.00;;;;;;5092883;28;20430;-45
2023/12/07 10:17:56;;;;;;;3.20;2.90;;;26.70;1.00;;;;;;5093500;28;20859;-45
2023/12/07 10:20:24;;;;;;;5.47;3.60;;;27.10;99.90;;;;;;5075610;28;20422;-46
2023/12/07 10:23:04;;;;;;;5.73;3.53;;;26.80;1.00;;;;;;5076746;28;20419;-43
2023/12/07 10:25:31;;;;;;;4.10;3.70;;;26.80;7.70;;;;;;5094544;28;20514;-45
2023/12/07 10:27:57;;;;;;;6.30;3.37;;;27.00;1.00;;;;;;5095311;28;20434;-43
2023/12/07 10:30:25;;;;;;;4.13;3.37;;;27.10;1.00;;;;;;5094948;28;20422;-45
2023/12/07 10:32:51;;;;;;;5.03;4.43;;;27.10;1.00;;;;;;5093564;28;20176;-45
2023/12/07 10:35:19;;;;;;;4.63;4.23;;;27.20;1.00;;;;;;5074566;28;20473;-44
2023/12/07 10:37:46;;;;;;;4.90;4.40;;;27.20;1.00;;;;;;5092924;28;20419;-43
2023/12/07 10:40:12;;;;;;;4.53;4.20;;;27.30;1.00;;;;;;5091762;28;20491;-44
2023/12/07 10:42:41;;;;;;;5.27;4.77;;;27.40;1.00;;;;;;5073911;28;20465;-43
2023/12/07 10:45:13;;;;;;;4.67;4.27;;;27.50;1.00;;;;;;5091940;28;20199;-44
2023/12/07 10:47:38;;;;;;;4.00;3.70;;;27.50;1.00;;;;;;5073467;28;20458;-45
2023/12/07 10:50:11;;;;;;;5.17;4.67;;;27.60;1.00;;;;;;5093408;28;20411;-44
2023/12/07 10:52:41;;;;;;;8.50;4.27;;;27.70;1.00;;;;;;5056534;28;20230;-42
2023/12/07 10:55:09;;;;;;;5.00;4.60;;;27.90;1.00;;;;;;5091975;28;20529;-44
2023/12/07 10:57:37;;;;;;;4.80;4.40;;;28.10;1.00;;;;;;5092538;28;20697;-43
2023/12/07 11:00:03;;;;;;;4.43;4.03;;;28.80;1.00;;;;;;5077099;28;20397;-43
2023/12/07 11:02:30;;;;;;;4.80;4.40;;;28.40;1.00;;;;;;5076985;28;20426;-46
2023/12/07 11:04:57;;;;;;;4.33;4.03;;;28.50;1.00;;;;;;5076839;28;20458;-46
2023/12/07 11:07:25;;;;;;;4.63;4.23;;;28.70;1.00;;;;;;5077481;28;20916;-43
2023/12/07 11:09:57;;;;;;;4.90;4.50;;;28.80;1.00;;;;;;5075747;28;20866;-44
2023/12/07 11:12:48;;;;;;;4.90;4.50;;;28.90;1.00;;;;;;5094372;28;20529;-45
2023/12/07 11:15:15;;;;;;;6.80;4.30;;;29.00;1.00;;;;;;5077339;28;20491;-47
2023/12/07 11:17:51;;;;;;;5.53;4.90;;;29.10;1.00;;;;;;5076107;28;20422;-43
2023/12/07 11:20:19;;;;;;;4.30;3.53;;;29.20;1.00;;;;;;5094774;28;20487;-46
2023/12/07 11:22:45;;;;;;;4.30;3.83;;;29.30;1.00;;;;;;5092560;28;20714;-44
2023/12/07 11:25:10;;;;;;;3.80;3.33;;;29.40;1.00;;;;;;5075950;28;20470;-44
2023/12/07 11:27:37;;;;;;;4.20;3.80;;;29.50;1.00;;;;;;5077436;28;20179;-45
2023/12/07 11:30:08;;;;;;;3.60;3.30;;;29.60;1.00;;;;;;5090998;28;20484;-42
2023/12/07 11:32:33;;;;;;;7.03;3.80;;;29.50;1.00;;;;;;5092751;28;20850;-43
2023/12/07 11:35:04;;;;;;;4.10;3.70;;;29.60;1.00;;;;;;5089020;28;20474;-46
2023/12/07 11:38:06;;;;;;;5.47;3.70;;;29.80;1.00;;;;;;5091588;28;20188;-44
2023/12/07 11:40:35;;;;;;;3.20;2.90;;;29.70;1.00;;;;;;5090006;28;20425;-47
2023/12/07 11:43:01;;;;;;;4.43;3.90;;;29.50;1.00;;;;;;5090193;28;20441;-43
2023/12/07 11:45:41;;;;;;;5.70;3.70;;;29.50;1.00;;;;;;5089918;28;20536;-44
2023/12/07 11:48:14;;;;;;;3.80;3.50;;;29.50;1.00;;;;;;5089315;28;20410;-46
2023/12/07 11:50:59;;;;;;;3.67;3.37;;;29.70;1.00;;;;;;5088219;28;20414;-45
2023/12/07 11:53:32;;;;;;;5.00;3.90;;;29.80;1.00;;;;;;5087553;28;20422;-43
2023/12/07 11:55:59;;;;;;;3.60;3.27;;;29.80;1.00;;;;;;5088830;28;20507;-46
2023/12/07 11:58:26;;;;;;;5.00;4.50;;;29.70;1.00;;;;;;5089083;28;20470;-43
2023/12/07 12:00:53;;;;;;;5.90;3.57;;;29.50;1.00;;;;;;5094966;28;20430;-42
2023/12/07 12:03:20;;;;;;;6.73;3.10;;;29.10;1.00;;;;;;5071524;28;20435;-44
2023/12/07 12:05:46;;;;;;;4.03;3.10;;;28.70;1.00;;;;;;5089249;28;20818;-44
2023/12/07 12:08:11;;;;;;;3.73;3.40;;;28.30;1.00;;;;;;5091382;28;20423;-42
2023/12/07 12:10:38;;;;;;;4.00;2.97;;;27.90;1.00;;;;;;5074339;28;20487;-44
2023/12/07 12:13:04;;;;;;;7.70;2.90;;;27.40;1.00;;;;;;5089683;28;20501;-44
2023/12/07 12:15:30;;;;;;;3.70;3.40;;;27.10;1.00;;;;;;5090502;28;20452;-44
2023/12/07 12:17:59;;;;;;;4.10;3.40;;;27.00;1.00;;;;;;5090416;28;20688;-43
2023/12/07 12:20:26;;;;;;;4.10;2.67;;;27.00;1.00;;;;;;5074544;28;20434;-42
2023/12/07 12:22:55;;;;;;;3.07;2.63;;;27.20;1.00;;;;;;5090329;28;20500;-43
2023/12/07 12:25:30;;;;;;;2.63;2.43;;;27.40;1.00;;;;;;5071674;28;20833;-44
2023/12/07 12:27:57;;;;;;;4.10;3.30;;;27.80;1.00;;;;;;5070550;28;20453;-43
2023/12/07 12:30:23;;;;;;;5.93;3.10;;;28.20;1.00;;;;;;5068134;28;20581;-43
2023/12/07 12:32:49;;;;;;;3.20;2.90;;;28.40;1.00;;;;;;5068060;28;20877;-43
2023/12/07 12:35:16;;;;;;;3.70;2.60;;;28.70;1.00;;;;;;5084170;28;20597;-45
2023/12/07 12:37:43;;;;;;;3.10;2.70;;;28.30;1.00;;;;;;5087292;28;20540;-44
2023/12/07 12:40:15;;;;;;;2.83;2.20;;;27.90;1.00;;;;;;5070950;28;20430;-45
2023/12/07 12:42:43;;;;;;;3.90;2.93;;;27.70;1.00;;;;;;5087772;28;20766;-44
2023/12/07 12:45:10;;;;;;;3.50;3.20;;;27.50;1.00;;;;;;5086991;28;20484;-43
2023/12/07 12:47:36;;;;;;;4.43;3.67;;;27.30;1.00;;;;;;5069407;28;20977;-43
2023/12/07 12:50:05;;;;;;;4.47;2.80;;;27.20;1.00;;;;;;5090101;28;20444;-44
2023/12/07 12:52:31;;;;;;;3.90;3.20;;;27.40;1.00;;;;;;5073768;28;20185;-45